sensor_id;sensor_type;location;lat;lon;timestamp;temperature;humidity
22418;DHT22;11376;50.932;4.442;2024-03-23T00:55:35;8.20;99.90
22418;DHT22;11376;50.932;4.442;2024-03-23T00:58:01;8.40;99.90
22418;DHT22;11376;50.932;4.442;2024-03-23T01:00:27;8.60;99.90
22418;DHT22;11376;50.932;4.442;2024-03-23T01:02:53;8.80;99.90
22418;DHT22;11376;50.932;4.442;2024-03-23T01:05:18;8.80;99.90
22418;DHT22;11376;50.932;4.442;2024-03-23T01:07:44;8.70;99.90
22418;DHT22;11376;50.932;4.442;2024-03-23T01:10:10;8.50;99.90
22418;DHT22;11376;50.932;4.442;2024-03-23T01:12:35;8.30;99.90
22418;DHT22;11376;50.932;4.442;2024-03-23T01:15:01;8.10;99.90
22418;DHT22;11376;50.932;4.442;2024-03-23T01:17:28;8.30;99.90
22418;DHT22;11376;50.932;4.442;2024-03-23T01:19:53;8.50;99.90
22418;DHT22;11376;50.932;4.442;2024-03-23T01:22:19;8.70;99.90
22418;DHT22;11376;50.932;4.442;2024-03-23T01:24:45;8.50;99.90
22418;DHT22;11376;50.932;4.442;2024-03-23T01:27:10;8.50;99.90
22418;DHT22;11376;50.932;4.442;2024-03-23T01:29:36;8.40;99.90
22418;DHT22;11376;50.932;4.442;2024-03-23T01:32:02;8.10;99.90
22418;DHT22;11376;50.932;4.442;2024-03-23T01:34:27;7.80;99.90
22418;DHT22;11376;50.932;4.442;2024-03-23T01:36:53;7.60;99.90
22418;DHT22;11376;50.932;4.442;2024-03-23T01:39:19;7.50;99.90
22418;DHT22;11376;50.932;4.442;2024-03-23T01:41:45;7.40;99.90
22418;DHT22;11376;50.932;4.442;2024-03-23T01:44:10;7.30;99.90
22418;DHT22;11376;50.932;4.442;2024-03-23T01:46:37;7.30;99.90
22418;DHT22;11376;50.932;4.442;2024-03-23T01:49:07;7.30;99.90
22418;DHT22;11376;50.932;4.442;2024-03-23T01:51:33;7.20;99.90
22418;DHT22;11376;50.932;4.442;2024-03-23T01:54:00;7.20;99.90
22418;DHT22;11376;50.932;4.442;2024-03-23T01:56:35;7.20;99.90
22418;DHT22;11376;50.932;4.442;2024-03-23T01:59:05;7.20;99.90
22418;DHT22;11376;50.932;4.442;2024-03-23T02:01:31;7.30;99.90
22418;DHT22;11376;50.932;4.442;2024-03-23T02:03:57;7.40;99.90
22418;DHT22;11376;50.932;4.442;2024-03-23T02:06:26;7.40;99.90
22418;DHT22;11376;50.932;4.442;2024-03-23T02:08:53;7.40;99.90
22418;DHT22;11376;50.932;4.442;2024-03-23T02:11:19;7.50;99.90
22418;DHT22;11376;50.932;4.442;2024-03-23T02:13:44;7.50;99.90
22418;DHT22;11376;50.932;4.442;2024-03-23T02:16:10;7.50;99.90
22418;DHT22;11376;50.932;4.442;2024-03-23T02:18:36;7.50;99.90
22418;DHT22;11376;50.932;4.442;2024-03-23T02:21:02;7.50;99.90
22418;DHT22;11376;50.932;4.442;2024-03-23T02:23:28;7.60;99.90
22418;DHT22;11376;50.932;4.442;2024-03-23T02:25:54;7.60;99.90
22418;DHT22;11376;50.932;4.442;2024-03-23T02:28:20;7.60;99.90
22418;DHT22;11376;50.932;4.442;2024-03-23T02:30:50;7.60;99.90
22418;DHT22;11376;50.932;4.442;2024-03-23T02:33:16;7.70;99.90
22418;DHT22;11376;50.932;4.442;2024-03-23T02:35:43;7.60;99.90
22418;DHT22;11376;50.932;4.442;2024-03-23T02:38:09;7.70;99.90
22418;DHT22;11376;50.932;4.442;2024-03-23T02:40:35;7.70;99.90
22418;DHT22;11376;50.932;4.442;2024-03-23T02:43:02;7.80;99.90
22418;DHT22;11376;50.932;4.442;2024-03-23T02:45:28;7.80;99.90
22418;DHT22;11376;50.932;4.442;2024-03-23T02:47:54;7.80;99.90
22418;DHT22;11376;50.932;4.442;2024-03-23T02:50:21;7.90;99.90
22418;DHT22;11376;50.932;4.442;2024-03-23T02:52:47;7.90;99.90
22418;DHT22;11376;50.932;4.442;2024-03-23T02:55:13;8.00;99.90
22418;DHT22;11376;50.932;4.442;2024-03-23T02:57:39;8.00;99.90
22418;DHT22;11376;50.932;4.442;2024-03-23T03:00:05;8.00;99.90
22418;DHT22;11376;50.932;4.442;2024-03-23T03:02:33;8.00;99.90
22418;DHT22;11376;50.932;4.442;2024-03-23T03:04:58;8.10;99.90
22418;DHT22;11376;50.932;4.442;2024-03-23T03:07:24;8.10;99.90
22418;DHT22;11376;50.932;4.442;2024-03-23T03:09:50;7.90;99.90
22418;DHT22;11376;50.932;4.442;2024-03-23T03:12:15;7.90;99.90
22418;DHT22;11376;50.932;4.442;2024-03-23T03:14:41;8.00;99.90
22418;DHT22;11376;50.932;4.442;2024-03-23T03:17:07;7.90;99.90
22418;DHT22;11376;50.932;4.442;2024-03-23T03:19:33;7.80;99.90
22418;DHT22;11376;50.932;4.442;2024-03-23T03:21:59;7.70;99.90
22418;DHT22;11376;50.932;4.442;2024-03-23T03:24:25;7.70;99.90
22418;DHT22;11376;50.932;4.442;2024-03-23T03:26:51;7.70;99.90
22418;DHT22;11376;50.932;4.442;2024-03-23T03:29:16;7.60;99.90
22418;DHT22;11376;50.932;4.442;2024-03-23T03:31:43;7.70;99.90
22418;DHT22;11376;50.932;4.442;2024-03-23T03:34:08;7.80;99.90
22418;DHT22;11376;50.932;4.442;2024-03-23T03:36:34;7.90;99.90
22418;DHT22;11376;50.932;4.442;2024-03-23T03:39:00;7.90;99.90
22418;DHT22;11376;50.932;4.442;2024-03-23T03:41:28;7.90;99.90
22418;DHT22;11376;50.932;4.442;2024-03-23T03:43:53;8.00;99.90
22418;DHT22;11376;50.932;4.442;2024-03-23T03:46:20;7.90;99.90
22418;DHT22;11376;50.932;4.442;2024-03-23T03:48:46;7.70;99.90
22418;DHT22;11376;50.932;4.442;2024-03-23T03:51:14;7.70;99.90
22418;DHT22;11376;50.932;4.442;2024-03-23T03:53:39;7.70;99.90
22418;DHT22;11376;50.932;4.442;2024-03-23T03:56:05;7.60;99.90
22418;DHT22;11376;50.932;4.442;2024-03-23T03:58:31;7.50;99.90
22418;DHT22;11376;50.932;4.442;2024-03-23T04:00:56;7.50;99.90
22418;DHT22;11376;50.932;4.442;2024-03-23T04:03:22;7.40;99.90
22418;DHT22;11376;50.932;4.442;2024-03-23T04:05:55;7.40;99.90
22418;DHT22;11376;50.932;4.442;2024-03-23T04:08:21;7.30;99.90
22418;DHT22;11376;50.932;4.442;2024-03-23T04:10:47;7.30;99.90
22418;DHT22;11376;50.932;4.442;2024-03-23T04:13:13;7.30;99.90
22418;DHT22;11376;50.932;4.442;2024-03-23T04:15:39;7.30;99.90
22418;DHT22;11376;50.932;4.442;2024-03-23T04:18:05;7.20;99.90
22418;DHT22;11376;50.932;4.442;2024-03-23T04:20:31;7.20;99.90
22418;DHT22;11376;50.932;4.442;2024-03-23T04:22:58;7.20;99.90
22418;DHT22;11376;50.932;4.442;2024-03-23T04:25:24;7.20;99.90
22418;DHT22;11376;50.932;4.442;2024-03-23T04:27:49;7.20;99.90
22418;DHT22;11376;50.932;4.442;2024-03-23T04:30:15;7.20;99.90
22418;DHT22;11376;50.932;4.442;2024-03-23T04:32:41;7.30;99.90
22418;DHT22;11376;50.932;4.442;2024-03-23T04:35:07;7.30;99.90
22418;DHT22;11376;50.932;4.442;2024-03-23T04:37:37;7.30;99.90
22418;DHT22;11376;50.932;4.442;2024-03-23T04:40:03;7.30;99.90
22418;DHT22;11376;50.932;4.442;2024-03-23T04:42:30;7.20;99.90
22418;DHT22;11376;50.932;4.442;2024-03-23T04:44:55;7.30;99.90
22418;DHT22;11376;50.932;4.442;2024-03-23T04:47:21;7.30;99.90
22418;DHT22;11376;50.932;4.442;2024-03-23T04:49:48;7.30;99.90
22418;DHT22;11376;50.932;4.442;2024-03-23T04:52:14;7.30;99.90
22418;DHT22;11376;50.932;4.442;2024-03-23T04:54:40;7.30;99.90
22418;DHT22;11376;50.932;4.442;2024-03-23T04:57:07;7.30;99.90
22418;DHT22;11376;50.932;4.442;2024-03-23T04:59:32;7.20;99.90
22418;DHT22;11376;50.932;4.442;2024-03-23T05:01:59;7.20;99.90
22418;DHT22;11376;50.932;4.442;2024-03-23T05:04:25;7.10;99.90
22418;DHT22;11376;50.932;4.442;2024-03-23T05:06:51;7.10;99.90
22418;DHT22;11376;50.932;4.442;2024-03-23T05:09:17;7.00;99.90
22418;DHT22;11376;50.932;4.442;2024-03-23T05:11:43;7.00;99.90
22418;DHT22;11376;50.932;4.442;2024-03-23T05:14:08;7.00;99.90
22418;DHT22;11376;50.932;4.442;2024-03-23T05:16:34;7.00;99.90
22418;DHT22;11376;50.932;4.442;2024-03-23T05:19:00;6.90;99.90
22418;DHT22;11376;50.932;4.442;2024-03-23T05:21:26;6.90;99.90
22418;DHT22;11376;50.932;4.442;2024-03-23T05:23:54;6.80;99.90
22418;DHT22;11376;50.932;4.442;2024-03-23T05:26:20;6.80;99.90
22418;DHT22;11376;50.932;4.442;2024-03-23T05:28:45;6.80;99.90
22418;DHT22;11376;50.932;4.442;2024-03-23T05:31:11;6.80;99.90
22418;DHT22;11376;50.932;4.442;2024-03-23T05:33:37;6.70;99.90
22418;DHT22;11376;50.932;4.442;2024-03-23T05:36:05;6.70;99.90
22418;DHT22;11376;50.932;4.442;2024-03-23T05:38:34;6.70;99.90
22418;DHT22;11376;50.932;4.442;2024-03-23T05:41:00;6.70;99.90
22418;DHT22;11376;50.932;4.442;2024-03-23T05:43:27;6.60;99.90
22418;DHT22;11376;50.932;4.442;2024-03-23T05:45:58;6.60;99.90
22418;DHT22;11376;50.932;4.442;2024-03-23T05:48:27;6.60;99.90
22418;DHT22;11376;50.932;4.442;2024-03-23T05:50:53;6.60;99.90
22418;DHT22;11376;50.932;4.442;2024-03-23T05:53:20;6.70;99.90
22418;DHT22;11376;50.932;4.442;2024-03-23T05:55:49;6.70;99.90
22418;DHT22;11376;50.932;4.442;2024-03-23T05:58:16;6.70;99.90
22418;DHT22;11376;50.932;4.442;2024-03-23T06:00:43;6.70;99.90
22418;DHT22;11376;50.932;4.442;2024-03-23T06:03:09;6.80;99.90
22418;DHT22;11376;50.932;4.442;2024-03-23T06:05:37;6.80;99.90
22418;DHT22;11376;50.932;4.442;2024-03-23T06:08:03;6.90;99.90
22418;DHT22;11376;50.932;4.442;2024-03-23T06:10:29;6.90;99.90
22418;DHT22;11376;50.932;4.442;2024-03-23T06:12:55;7.00;99.90
22418;DHT22;11376;50.932;4.442;2024-03-23T06:15:21;7.00;99.90
22418;DHT22;11376;50.932;4.442;2024-03-23T06:17:48;7.00;99.90
22418;DHT22;11376;50.932;4.442;2024-03-23T06:20:14;7.00;99.90
22418;DHT22;11376;50.932;4.442;2024-03-23T06:22:40;7.10;99.90
22418;DHT22;11376;50.932;4.442;2024-03-23T06:25:06;7.00;99.90
22418;DHT22;11376;50.932;4.442;2024-03-23T06:27:33;7.10;99.90
22418;DHT22;11376;50.932;4.442;2024-03-23T06:29:59;7.10;99.90
22418;DHT22;11376;50.932;4.442;2024-03-23T06:32:25;7.00;99.90
22418;DHT22;11376;50.932;4.442;2024-03-23T06:34:51;7.10;99.90
22418;DHT22;11376;50.932;4.442;2024-03-23T06:37:16;7.10;99.90
22418;DHT22;11376;50.932;4.442;2024-03-23T06:39:42;7.10;99.90
22418;DHT22;11376;50.932;4.442;2024-03-23T06:42:08;7.10;99.90
22418;DHT22;11376;50.932;4.442;2024-03-23T06:44:34;7.10;99.90
22418;DHT22;11376;50.932;4.442;2024-03-23T06:47:00;7.10;99.90
22418;DHT22;11376;50.932;4.442;2024-03-23T06:49:25;7.10;99.90
22418;DHT22;11376;50.932;4.442;2024-03-23T06:51:57;7.20;99.90
22418;DHT22;11376;50.932;4.442;2024-03-23T06:54:24;7.20;99.90
22418;DHT22;11376;50.932;4.442;2024-03-23T06:56:50;7.30;99.90
22418;DHT22;11376;50.932;4.442;2024-03-23T06:59:16;7.30;99.90
22418;DHT22;11376;50.932;4.442;2024-03-23T07:01:41;7.50;99.90
22418;DHT22;11376;50.932;4.442;2024-03-23T07:04:07;7.50;99.90
22418;DHT22;11376;50.932;4.442;2024-03-23T07:06:33;7.60;99.90
22418;DHT22;11376;50.932;4.442;2024-03-23T07:08:59;7.40;99.90
22418;DHT22;11376;50.932;4.442;2024-03-23T07:11:25;7.30;99.90
22418;DHT22;11376;50.932;4.442;2024-03-23T07:13:52;7.10;99.90
22418;DHT22;11376;50.932;4.442;2024-03-23T07:16:20;7.00;99.90
22418;DHT22;11376;50.932;4.442;2024-03-23T07:18:46;7.10;99.90
22418;DHT22;11376;50.932;4.442;2024-03-23T07:21:12;7.00;99.90
22418;DHT22;11376;50.932;4.442;2024-03-23T07:23:37;6.90;99.90
22418;DHT22;11376;50.932;4.442;2024-03-23T07:26:05;6.80;99.90
22418;DHT22;11376;50.932;4.442;2024-03-23T07:28:34;6.80;99.90
22418;DHT22;11376;50.932;4.442;2024-03-23T07:31:07;6.80;99.90
22418;DHT22;11376;50.932;4.442;2024-03-23T07:33:37;6.80;99.90
22418;DHT22;11376;50.932;4.442;2024-03-23T07:36:04;6.80;99.90
22418;DHT22;11376;50.932;4.442;2024-03-23T07:38:31;6.80;99.90
22418;DHT22;11376;50.932;4.442;2024-03-23T07:41:07;6.80;99.90
22418;DHT22;11376;50.932;4.442;2024-03-23T07:43:34;6.90;99.90
22418;DHT22;11376;50.932;4.442;2024-03-23T07:46:00;6.90;99.90
22418;DHT22;11376;50.932;4.442;2024-03-23T07:48:27;7.00;99.90
22418;DHT22;11376;50.932;4.442;2024-03-23T07:51:17;7.20;99.90
22418;DHT22;11376;50.932;4.442;2024-03-23T07:53:44;7.10;99.90
22418;DHT22;11376;50.932;4.442;2024-03-23T07:56:11;7.10;99.90
22418;DHT22;11376;50.932;4.442;2024-03-23T07:58:38;7.20;99.90
22418;DHT22;11376;50.932;4.442;2024-03-23T08:01:14;7.20;99.90
22418;DHT22;11376;50.932;4.442;2024-03-23T08:03:44;7.30;99.90
22418;DHT22;11376;50.932;4.442;2024-03-23T08:06:17;7.30;99.90
22418;DHT22;11376;50.932;4.442;2024-03-23T08:08:46;7.50;99.90
22418;DHT22;11376;50.932;4.442;2024-03-23T08:11:12;7.50;99.90
22418;DHT22;11376;50.932;4.442;2024-03-23T08:13:42;7.60;99.90
22418;DHT22;11376;50.932;4.442;2024-03-23T08:16:10;7.70;99.90
22418;DHT22;11376;50.932;4.442;2024-03-23T08:18:36;7.80;99.90
22418;DHT22;11376;50.932;4.442;2024-03-23T08:21:03;7.80;99.90
22418;DHT22;11376;50.932;4.442;2024-03-23T08:23:30;7.90;99.90
22418;DHT22;11376;50.932;4.442;2024-03-23T08:26:00;8.10;99.90
22418;DHT22;11376;50.932;4.442;2024-03-23T08:28:26;8.40;99.90
22418;DHT22;11376;50.932;4.442;2024-03-23T08:30:52;8.50;99.90
22418;DHT22;11376;50.932;4.442;2024-03-23T08:33:18;8.40;99.90
22418;DHT22;11376;50.932;4.442;2024-03-23T08:35:56;8.60;99.90
22418;DHT22;11376;50.932;4.442;2024-03-23T08:38:23;8.60;99.90
22418;DHT22;11376;50.932;4.442;2024-03-23T08:41:02;8.80;99.90
22418;DHT22;11376;50.932;4.442;2024-03-23T08:43:28;9.00;99.90
22418;DHT22;11376;50.932;4.442;2024-03-23T08:46:07;9.10;99.90
22418;DHT22;11376;50.932;4.442;2024-03-23T08:48:34;9.10;99.90
22418;DHT22;11376;50.932;4.442;2024-03-23T08:51:04;8.90;99.90
22418;DHT22;11376;50.932;4.442;2024-03-23T08:53:31;8.80;99.90
22418;DHT22;11376;50.932;4.442;2024-03-23T08:55:57;8.80;99.90
22418;DHT22;11376;50.932;4.442;2024-03-23T08:58:24;8.70;99.90
22418;DHT22;11376;50.932;4.442;2024-03-23T09:00:55;8.70;99.90
22418;DHT22;11376;50.932;4.442;2024-03-23T09:03:25;8.70;99.90
22418;DHT22;11376;50.932;4.442;2024-03-23T09:05:51;9.00;99.90
22418;DHT22;11376;50.932;4.442;2024-03-23T09:08:18;9.10;99.90
22418;DHT22;11376;50.932;4.442;2024-03-23T09:10:43;9.50;99.90
22418;DHT22;11376;50.932;4.442;2024-03-23T09:13:09;9.80;99.90
22418;DHT22;11376;50.932;4.442;2024-03-23T09:15:45;9.70;99.90
22418;DHT22;11376;50.932;4.442;2024-03-23T09:18:11;9.90;99.90
22418;DHT22;11376;50.932;4.442;2024-03-23T09:20:36;9.90;99.90
22418;DHT22;11376;50.932;4.442;2024-03-23T09:23:02;9.80;99.90
22418;DHT22;11376;50.932;4.442;2024-03-23T09:25:28;9.60;99.90
22418;DHT22;11376;50.932;4.442;2024-03-23T09:27:54;9.60;99.90
22418;DHT22;11376;50.932;4.442;2024-03-23T09:30:19;9.50;99.90
22418;DHT22;11376;50.932;4.442;2024-03-23T09:32:45;9.50;99.90
22418;DHT22;11376;50.932;4.442;2024-03-23T09:35:11;9.60;99.90
22418;DHT22;11376;50.932;4.442;2024-03-23T09:37:38;9.30;99.90
22418;DHT22;11376;50.932;4.442;2024-03-23T09:40:14;9.40;99.90
22418;DHT22;11376;50.932;4.442;2024-03-23T09:42:42;9.40;99.90
22418;DHT22;11376;50.932;4.442;2024-03-23T09:45:21;9.60;99.90
22418;DHT22;11376;50.932;4.442;2024-03-23T09:47:47;9.70;99.90
22418;DHT22;11376;50.932;4.442;2024-03-23T09:50:14;9.80;99.90
22418;DHT22;11376;50.932;4.442;2024-03-23T09:52:40;9.70;99.90
22418;DHT22;11376;50.932;4.442;2024-03-23T09:55:08;9.50;99.90
22418;DHT22;11376;50.932;4.442;2024-03-23T09:57:34;9.50;99.90
22418;DHT22;11376;50.932;4.442;2024-03-23T10:00:00;9.80;99.90
22418;DHT22;11376;50.932;4.442;2024-03-23T10:02:26;10.00;99.90
22418;DHT22;11376;50.932;4.442;2024-03-23T10:04:51;10.30;99.90
22418;DHT22;11376;50.932;4.442;2024-03-23T10:07:21;10.00;99.90
22418;DHT22;11376;50.932;4.442;2024-03-23T10:09:49;9.90;99.90
22418;DHT22;11376;50.932;4.442;2024-03-23T10:12:19;9.70;99.90
22418;DHT22;11376;50.932;4.442;2024-03-23T10:14:45;10.00;99.90
22418;DHT22;11376;50.932;4.442;2024-03-23T10:17:18;10.40;99.90
22418;DHT22;11376;50.932;4.442;2024-03-23T10:19:49;10.10;99.90
22418;DHT22;11376;50.932;4.442;2024-03-23T10:24:43;9.90;99.90
22418;DHT22;11376;50.932;4.442;2024-03-23T10:27:09;9.60;99.90
22418;DHT22;11376;50.932;4.442;2024-03-23T10:29:35;9.60;99.90
22418;DHT22;11376;50.932;4.442;2024-03-23T10:32:14;9.60;99.90
22418;DHT22;11376;50.932;4.442;2024-03-23T10:34:40;9.70;99.90
22418;DHT22;11376;50.932;4.442;2024-03-23T10:37:07;10.40;99.90
22418;DHT22;11376;50.932;4.442;2024-03-23T10:39:40;10.50;99.90
22418;DHT22;11376;50.932;4.442;2024-03-23T10:42:07;10.40;99.90
22418;DHT22;11376;50.932;4.442;2024-03-23T10:44:34;11.20;99.90
22418;DHT22;11376;50.932;4.442;2024-03-23T10:47:04;11.40;99.90
22418;DHT22;11376;50.932;4.442;2024-03-23T10:49:32;11.30;99.90
22418;DHT22;11376;50.932;4.442;2024-03-23T10:52:04;12.20;99.90
22418;DHT22;11376;50.932;4.442;2024-03-23T10:54:31;13.10;99.90
22418;DHT22;11376;50.932;4.442;2024-03-23T10:57:08;13.20;99.90
22418;DHT22;11376;50.932;4.442;2024-03-23T10:59:37;13.80;99.90
22418;DHT22;11376;50.932;4.442;2024-03-23T11:02:03;14.60;99.90
22418;DHT22;11376;50.932;4.442;2024-03-23T11:04:37;13.00;99.90
22418;DHT22;11376;50.932;4.442;2024-03-23T11:09:50;12.20;99.90
22418;DHT22;11376;50.932;4.442;2024-03-23T11:14:55;11.40;99.90
22418;DHT22;11376;50.932;4.442;2024-03-23T11:17:23;12.50;99.90
22418;DHT22;11376;50.932;4.442;2024-03-23T11:19:57;12.80;99.90
22418;DHT22;11376;50.932;4.442;2024-03-23T11:27:46;13.60;99.90
22418;DHT22;11376;50.932;4.442;2024-03-23T11:30:23;13.90;99.90
22418;DHT22;11376;50.932;4.442;2024-03-23T11:32:51;13.50;99.90
22418;DHT22;11376;50.932;4.442;2024-03-23T11:35:37;11.80;99.90
22418;DHT22;11376;50.932;4.442;2024-03-23T11:38:10;10.60;99.90
22418;DHT22;11376;50.932;4.442;2024-03-23T11:40:40;10.30;99.90
22418;DHT22;11376;50.932;4.442;2024-03-23T11:43:17;10.90;99.90
22418;DHT22;11376;50.932;4.442;2024-03-23T11:45:45;11.20;99.90
22418;DHT22;11376;50.932;4.442;2024-03-23T11:48:16;11.50;99.90
22418;DHT22;11376;50.932;4.442;2024-03-23T11:50:47;12.30;99.90
22418;DHT22;11376;50.932;4.442;2024-03-23T11:53:19;12.10;99.90
22418;DHT22;11376;50.932;4.442;2024-03-23T11:58:22;13.30;99.90
22418;DHT22;11376;50.932;4.442;2024-03-23T12:01:02;12.90;99.90
22418;DHT22;11376;50.932;4.442;2024-03-23T12:03:29;12.40;99.90
22418;DHT22;11376;50.932;4.442;2024-03-23T12:06:02;13.30;99.90
22418;DHT22;11376;50.932;4.442;2024-03-23T12:08:36;13.50;99.90
22418;DHT22;11376;50.932;4.442;2024-03-23T12:13:36;11.30;99.90
22418;DHT22;11376;50.932;4.442;2024-03-23T12:16:12;11.40;99.90
22418;DHT22;11376;50.932;4.442;2024-03-23T12:18:42;11.30;99.90
22418;DHT22;11376;50.932;4.442;2024-03-23T12:21:09;11.20;99.90
22418;DHT22;11376;50.932;4.442;2024-03-23T12:23:35;10.90;99.90
22418;DHT22;11376;50.932;4.442;2024-03-23T12:26:01;11.60;99.90
22418;DHT22;11376;50.932;4.442;2024-03-23T12:28:27;12.40;99.90
22418;DHT22;11376;50.932;4.442;2024-03-23T12:30:53;14.10;99.90
22418;DHT22;11376;50.932;4.442;2024-03-23T12:33:20;14.60;99.90
22418;DHT22;11376;50.932;4.442;2024-03-23T12:35:45;13.00;99.90
22418;DHT22;11376;50.932;4.442;2024-03-23T12:38:11;13.50;99.90
22418;DHT22;11376;50.932;4.442;2024-03-23T12:40:37;14.10;99.90
22418;DHT22;11376;50.932;4.442;2024-03-23T12:43:03;14.50;99.90
22418;DHT22;11376;50.932;4.442;2024-03-23T12:45:28;15.70;99.90
22418;DHT22;11376;50.932;4.442;2024-03-23T12:47:54;15.10;99.90
22418;DHT22;11376;50.932;4.442;2024-03-23T12:50:20;16.20;99.90
22418;DHT22;11376;50.932;4.442;2024-03-23T12:52:46;16.90;99.90
22418;DHT22;11376;50.932;4.442;2024-03-23T12:55:12;17.00;99.90
22418;DHT22;11376;50.932;4.442;2024-03-23T12:57:38;17.00;99.90
22418;DHT22;11376;50.932;4.442;2024-03-23T13:00:06;16.20;99.90
22418;DHT22;11376;50.932;4.442;2024-03-23T13:02:34;16.20;99.90
22418;DHT22;11376;50.932;4.442;2024-03-23T13:05:00;16.90;99.90
22418;DHT22;11376;50.932;4.442;2024-03-23T13:07:26;16.60;99.90
22418;DHT22;11376;50.932;4.442;2024-03-23T13:09:52;16.90;99.90
22418;DHT22;11376;50.932;4.442;2024-03-23T13:12:19;16.20;99.90
22418;DHT22;11376;50.932;4.442;2024-03-23T13:14:45;13.60;99.90
22418;DHT22;11376;50.932;4.442;2024-03-23T13:17:12;12.30;99.90
22418;DHT22;11376;50.932;4.442;2024-03-23T13:19:37;11.30;99.90
22418;DHT22;11376;50.932;4.442;2024-03-23T13:22:04;10.70;99.90
22418;DHT22;11376;50.932;4.442;2024-03-23T13:24:30;10.60;99.90
22418;DHT22;11376;50.932;4.442;2024-03-23T13:26:57;10.30;99.90
22418;DHT22;11376;50.932;4.442;2024-03-23T13:29:24;10.40;99.90
22418;DHT22;11376;50.932;4.442;2024-03-23T13:31:50;10.40;99.90
22418;DHT22;11376;50.932;4.442;2024-03-23T13:34:17;10.30;99.90
22418;DHT22;11376;50.932;4.442;2024-03-23T13:36:44;10.30;99.90
22418;DHT22;11376;50.932;4.442;2024-03-23T13:39:10;10.80;99.90
22418;DHT22;11376;50.932;4.442;2024-03-23T13:41:48;11.10;99.90
22418;DHT22;11376;50.932;4.442;2024-03-23T13:44:14;11.80;99.90
22418;DHT22;11376;50.932;4.442;2024-03-23T13:46:41;11.80;99.90
22418;DHT22;11376;50.932;4.442;2024-03-23T13:49:29;11.30;99.90
22418;DHT22;11376;50.932;4.442;2024-03-23T13:51:56;10.50;99.90
22418;DHT22;11376;50.932;4.442;2024-03-23T13:54:24;10.30;99.90
22418;DHT22;11376;50.932;4.442;2024-03-23T13:56:55;10.30;99.90
22418;DHT22;11376;50.932;4.442;2024-03-23T13:59:21;10.40;99.90
22418;DHT22;11376;50.932;4.442;2024-03-23T14:01:48;9.90;99.90
22418;DHT22;11376;50.932;4.442;2024-03-23T14:04:14;9.70;99.90
22418;DHT22;11376;50.932;4.442;2024-03-23T14:06:42;9.50;99.90
22418;DHT22;11376;50.932;4.442;2024-03-23T14:09:11;9.30;99.90
22418;DHT22;11376;50.932;4.442;2024-03-23T14:11:37;8.90;99.90
22418;DHT22;11376;50.932;4.442;2024-03-23T14:14:03;8.80;99.90
22418;DHT22;11376;50.932;4.442;2024-03-23T14:16:32;9.00;99.90
22418;DHT22;11376;50.932;4.442;2024-03-23T14:18:58;10.20;99.90
22418;DHT22;11376;50.932;4.442;2024-03-23T14:21:24;11.60;99.90
22418;DHT22;11376;50.932;4.442;2024-03-23T14:23:50;11.90;99.90
22418;DHT22;11376;50.932;4.442;2024-03-23T14:26:16;12.20;99.90
22418;DHT22;11376;50.932;4.442;2024-03-23T14:28:42;13.30;99.90
22418;DHT22;11376;50.932;4.442;2024-03-23T14:31:08;14.30;99.90
22418;DHT22;11376;50.932;4.442;2024-03-23T14:33:39;14.90;99.90
22418;DHT22;11376;50.932;4.442;2024-03-23T14:36:12;15.90;99.90
22418;DHT22;11376;50.932;4.442;2024-03-23T14:38:38;16.20;99.90
22418;DHT22;11376;50.932;4.442;2024-03-23T14:41:04;17.20;99.90
22418;DHT22;11376;50.932;4.442;2024-03-23T14:43:30;17.70;99.90
22418;DHT22;11376;50.932;4.442;2024-03-23T14:46:13;16.40;99.90
22418;DHT22;11376;50.932;4.442;2024-03-23T14:48:40;14.30;99.90
22418;DHT22;11376;50.932;4.442;2024-03-23T14:51:07;13.30;99.90
22418;DHT22;11376;50.932;4.442;2024-03-23T14:53:39;13.00;99.90
22418;DHT22;11376;50.932;4.442;2024-03-23T14:56:06;13.50;99.90
22418;DHT22;11376;50.932;4.442;2024-03-23T14:58:32;14.10;99.90
22418;DHT22;11376;50.932;4.442;2024-03-23T15:01:04;14.80;99.90
22418;DHT22;11376;50.932;4.442;2024-03-23T15:03:30;15.00;99.90
22418;DHT22;11376;50.932;4.442;2024-03-23T15:05:57;14.90;99.90
22418;DHT22;11376;50.932;4.442;2024-03-23T15:08:23;15.60;99.90
22418;DHT22;11376;50.932;4.442;2024-03-23T15:10:49;16.40;99.90
22418;DHT22;11376;50.932;4.442;2024-03-23T15:13:15;15.60;99.90
22418;DHT22;11376;50.932;4.442;2024-03-23T15:15:42;14.10;99.90
22418;DHT22;11376;50.932;4.442;2024-03-23T15:18:12;12.70;99.90
22418;DHT22;11376;50.932;4.442;2024-03-23T15:20:41;12.90;99.90
22418;DHT22;11376;50.932;4.442;2024-03-23T15:23:07;13.90;99.90
22418;DHT22;11376;50.932;4.442;2024-03-23T15:25:33;14.90;99.90
22418;DHT22;11376;50.932;4.442;2024-03-23T15:27:59;15.70;99.90
22418;DHT22;11376;50.932;4.442;2024-03-23T15:30:26;15.90;99.90
22418;DHT22;11376;50.932;4.442;2024-03-23T15:32:52;14.90;99.90
22418;DHT22;11376;50.932;4.442;2024-03-23T15:35:18;14.90;99.90
22418;DHT22;11376;50.932;4.442;2024-03-23T15:37:46;14.00;99.90
22418;DHT22;11376;50.932;4.442;2024-03-23T15:40:12;13.80;99.90
22418;DHT22;11376;50.932;4.442;2024-03-23T15:42:38;13.50;99.90
22418;DHT22;11376;50.932;4.442;2024-03-23T15:45:06;13.00;99.90
22418;DHT22;11376;50.932;4.442;2024-03-23T15:47:33;12.90;99.90
22418;DHT22;11376;50.932;4.442;2024-03-23T15:49:58;13.10;99.90
22418;DHT22;11376;50.932;4.442;2024-03-23T15:52:24;13.60;99.90
22418;DHT22;11376;50.932;4.442;2024-03-23T15:54:50;13.10;99.90
22418;DHT22;11376;50.932;4.442;2024-03-23T15:57:15;12.70;99.90
22418;DHT22;11376;50.932;4.442;2024-03-23T15:59:41;12.50;99.90
22418;DHT22;11376;50.932;4.442;2024-03-23T16:02:07;12.30;99.90
22418;DHT22;11376;50.932;4.442;2024-03-23T16:04:32;11.90;99.90
22418;DHT22;11376;50.932;4.442;2024-03-23T16:06:58;11.50;99.90
22418;DHT22;11376;50.932;4.442;2024-03-23T16:09:24;11.60;99.90
22418;DHT22;11376;50.932;4.442;2024-03-23T16:11:51;11.50;99.90
22418;DHT22;11376;50.932;4.442;2024-03-23T16:14:17;11.60;99.90
22418;DHT22;11376;50.932;4.442;2024-03-23T16:16:42;11.50;99.90
22418;DHT22;11376;50.932;4.442;2024-03-23T16:19:08;11.30;99.90
22418;DHT22;11376;50.932;4.442;2024-03-23T16:21:34;11.00;99.90
22418;DHT22;11376;50.932;4.442;2024-03-23T16:24:00;11.00;99.90
22418;DHT22;11376;50.932;4.442;2024-03-23T16:26:26;10.90;99.90
22418;DHT22;11376;50.932;4.442;2024-03-23T16:28:52;10.90;99.90
22418;DHT22;11376;50.932;4.442;2024-03-23T16:31:18;10.90;99.90
22418;DHT22;11376;50.932;4.442;2024-03-23T16:33:44;10.50;99.90
22418;DHT22;11376;50.932;4.442;2024-03-23T16:36:10;10.50;99.90
22418;DHT22;11376;50.932;4.442;2024-03-23T16:38:41;10.60;99.90
22418;DHT22;11376;50.932;4.442;2024-03-23T16:41:11;10.80;99.90
22418;DHT22;11376;50.932;4.442;2024-03-23T16:43:43;10.80;99.90
22418;DHT22;11376;50.932;4.442;2024-03-23T16:46:14;10.80;99.90
22418;DHT22;11376;50.932;4.442;2024-03-23T16:48:42;10.80;99.90
22418;DHT22;11376;50.932;4.442;2024-03-23T16:51:11;10.60;99.90
22418;DHT22;11376;50.932;4.442;2024-03-23T16:53:38;10.60;99.90